Time;durP1;ratioP1;P1;durP2;ratioP2;P2;SDS_P1;SDS_P2;PMS_P1;PMS_P2;Temp;Humidity;BMP_temperature;BMP_pressure;BME280_temperature;BME280_humidity;BME280_pressure;Samples;Min_cycle;Max_cycle;Signal;HPM_P1;HPM_P2
2022/04/20 00:02:07;;;;;;;3.45;2.30;;;;;;;-148.33;100.00;56587.81;5029207;28;20049;-59
2022/04/20 00:04:33;;;;;;;4.03;2.70;;;;;;;-148.33;100.00;56587.81;5028102;28;20465;-58
2022/04/20 00:06:58;;;;;;;3.08;2.88;;;;;;;-148.33;100.00;56587.81;5029299;28;20033;-57
2022/04/20 00:09:23;;;;;;;2.75;2.55;;;;;;;-148.33;100.00;56587.81;5028868;28;20098;-59
2022/04/20 00:11:49;;;;;;;3.72;3.00;;;;;;;-148.33;100.00;56587.81;5028885;28;20034;-57
2022/04/20 00:14:14;;;;;;;4.38;2.38;;;;;;;-148.33;100.00;56587.81;5029044;28;20026;-60
2022/04/20 00:16:39;;;;;;;3.47;2.47;;;;;;;-148.33;100.00;56587.81;5028775;28;20117;-59
2022/04/20 00:19:05;;;;;;;2.65;2.20;;;;;;;-148.33;100.00;56587.81;5028312;28;20061;-60
2022/04/20 00:21:30;;;;;;;4.72;3.20;;;;;;;-148.33;100.00;56587.81;5028542;28;20418;-60
2022/04/20 00:23:55;;;;;;;3.58;2.28;;;;;;;-148.33;100.00;56587.81;5028647;28;20063;-59
2022/04/20 00:26:21;;;;;;;3.28;2.47;;;;;;;-148.33;100.00;56587.81;5028160;28;20035;-58
2022/04/20 00:28:46;;;;;;;3.70;2.80;;;;;;;-148.33;100.00;56587.81;5028310;28;20444;-58
2022/04/20 00:31:11;;;;;;;2.85;2.55;;;;;;;-148.33;100.00;56587.81;5028582;28;20096;-59
2022/04/20 00:33:37;;;;;;;4.22;2.70;;;;;;;-148.33;100.00;56587.81;5028361;28;20485;-59
2022/04/20 00:36:03;;;;;;;3.00;2.70;;;;;;;-148.33;100.00;56587.81;5028754;28;20040;-59
2022/04/20 00:38:29;;;;;;;4.43;2.70;;;;;;;-148.33;100.00;56587.81;5028335;28;20086;-57
2022/04/20 00:40:55;;;;;;;3.28;2.92;;;;;;;-148.33;100.00;56587.81;5028119;28;20034;-58
2022/04/20 00:43:21;;;;;;;4.47;2.67;;;;;;;-148.33;100.00;56587.81;5028634;28;20417;-59
2022/04/20 00:45:47;;;;;;;3.67;2.72;;;;;;;-148.33;100.00;56587.81;5028421;28;20037;-59
2022/04/20 00:48:12;;;;;;;4.53;3.15;;;;;;;-148.33;100.00;56587.81;5027975;28;20030;-59
2022/04/20 00:50:42;;;;;;;5.45;3.25;;;;;;;-148.33;100.00;56587.81;5027302;28;20098;-57
2022/04/20 00:53:07;;;;;;;3.35;2.78;;;;;;;-148.33;100.00;56587.81;5028232;28;20033;-58
2022/04/20 00:55:32;;;;;;;3.20;2.90;;;;;;;-148.33;100.00;56587.81;5027004;28;20021;-58
2022/04/20 00:57:58;;;;;;;3.42;2.70;;;;;;;-148.33;100.00;56587.81;5027935;28;20086;-57
2022/04/20 01:00:27;;;;;;;4.90;2.40;;;;;;;-148.33;100.00;56587.81;5027791;28;20030;-59
2022/04/20 01:02:53;;;;;;;5.95;2.80;;;;;;;-148.33;100.00;56587.81;5028614;28;20041;-57
2022/04/20 01:05:19;;;;;;;2.80;2.60;;;;;;;-148.33;100.00;56587.81;5028544;28;20041;-58
2022/04/20 01:07:45;;;;;;;3.25;2.95;;;;;;;-148.33;100.00;56587.81;5028090;28;20029;-60
2022/04/20 01:10:10;;;;;;;3.70;2.90;;;;;;;-148.33;100.00;56587.81;5027374;28;20032;-57
2022/04/20 01:12:36;;;;;;;3.85;3.17;;;;;;;-148.33;100.00;56587.81;5028437;28;20025;-57
2022/04/20 01:15:02;;;;;;;3.28;3.03;;;;;;;-148.33;100.00;56587.81;5028485;28;20579;-58
2022/04/20 01:17:27;;;;;;;5.32;3.05;;;;;;;-148.33;100.00;56587.81;5027990;28;20048;-58
2022/04/20 01:19:52;;;;;;;3.40;3.00;;;;;;;-148.33;100.00;56587.81;5027869;28;20029;-59
2022/04/20 01:22:18;;;;;;;3.88;3.40;;;;;;;-148.33;100.00;56587.81;5027575;28;20036;-59
2022/04/20 01:24:43;;;;;;;3.70;2.92;;;;;;;-148.33;100.00;56587.81;5028311;28;20129;-58
2022/04/20 01:27:10;;;;;;;4.32;3.03;;;;;;;-148.33;100.00;56587.81;5028450;28;20030;-57
2022/04/20 01:29:36;;;;;;;4.75;3.00;;;;;;;-148.33;100.00;56587.81;5027667;28;20060;-58
2022/04/20 01:32:02;;;;;;;3.58;3.20;;;;;;;-148.33;100.00;56587.81;5026600;28;20032;-58
2022/04/20 01:34:27;;;;;;;3.97;3.20;;;;;;;-148.33;100.00;56587.81;5027824;28;20033;-59
2022/04/20 01:36:52;;;;;;;5.82;2.90;;;;;;;-148.33;100.00;56587.81;5028254;28;20428;-57
2022/04/20 01:39:18;;;;;;;7.03;3.42;;;;;;;-148.33;100.00;56587.81;5028316;28;20026;-58
2022/04/20 01:41:44;;;;;;;3.85;3.15;;;;;;;-148.33;100.00;56587.81;5027736;28;20029;-59
2022/04/20 01:44:09;;;;;;;4.40;2.90;;;;;;;-148.33;100.00;56587.81;5028161;28;20204;-59
2022/04/20 01:46:35;;;;;;;3.63;2.90;;;;;;;-148.33;100.00;56587.81;5027749;28;20021;-58
2022/04/20 01:49:01;;;;;;;4.25;3.40;;;;;;;-148.33;100.00;56587.81;5028341;28;20025;-57
2022/04/20 01:54:11;;;;;;;3.50;3.20;;;;;;;-148.33;100.00;56587.81;5027796;28;20103;-58
2022/04/20 01:56:36;;;;;;;4.30;3.33;;;;;;;-148.33;100.00;56587.81;5027879;28;20021;-59
2022/04/20 01:59:02;;;;;;;6.32;3.75;;;;;;;-148.33;100.00;56587.81;5027650;28;20473;-57
2022/04/20 02:04:11;;;;;;;4.07;3.10;;;;;;;-148.33;100.00;56587.81;5031318;28;20052;-57
2022/04/20 02:06:36;;;;;;;4.90;3.10;;;;;;;-148.33;100.00;56587.81;5030897;28;20025;-59
2022/04/20 02:09:02;;;;;;;3.95;3.63;;;;;;;-148.33;100.00;56587.81;5031067;28;20617;-58
2022/04/20 02:11:27;;;;;;;3.83;3.35;;;;;;;-148.33;100.00;56587.81;5031239;28;20025;-58
2022/04/20 02:13:53;;;;;;;4.75;3.28;;;;;;;-148.33;100.00;56587.81;5031041;28;20025;-59
2022/04/20 02:16:18;;;;;;;4.20;3.20;;;;;;;-148.33;100.00;56587.81;5030798;28;20025;-57
2022/04/20 02:18:43;;;;;;;4.55;3.78;;;;;;;-148.33;100.00;56587.81;5031081;28;20025;-58
2022/04/20 02:21:08;;;;;;;5.00;3.08;;;;;;;-148.33;100.00;56587.81;5030953;28;20422;-58
2022/04/20 02:23:34;;;;;;;3.70;3.00;;;;;;;-148.33;100.00;56587.81;5030642;28;20029;-58
2022/04/20 02:25:59;;;;;;;6.47;3.38;;;;;;;-148.33;100.00;56587.81;5031180;28;20025;-60
2022/04/20 02:28:24;;;;;;;3.72;3.13;;;;;;;-148.33;100.00;56587.81;5030162;28;20083;-59
2022/04/20 02:30:49;;;;;;;4.20;3.47;;;;;;;-148.33;100.00;56587.81;5030567;28;20021;-58
2022/04/20 02:33:15;;;;;;;3.85;3.30;;;;;;;-148.33;100.00;56587.81;5030336;28;20041;-57
2022/04/20 02:35:40;;;;;;;4.00;3.45;;;;;;;-148.33;100.00;56587.81;5030668;28;20104;-59
2022/04/20 02:38:09;;;;;;;5.78;3.75;;;;;;;-148.33;100.00;56587.81;5030638;28;20029;-57
2022/04/20 02:40:34;;;;;;;4.28;3.55;;;;;;;-148.33;100.00;56587.81;5028837;28;20396;-59
2022/04/20 02:43:00;;;;;;;5.18;3.45;;;;;;;-148.33;100.00;56587.81;5030715;28;20035;-59
2022/04/20 02:45:25;;;;;;;3.63;3.15;;;;;;;-148.33;100.00;56587.81;5030486;28;20033;-57
2022/04/20 02:47:50;;;;;;;4.13;3.25;;;;;;;-148.33;100.00;56587.81;5030675;28;20116;-59
2022/04/20 02:50:16;;;;;;;5.13;3.35;;;;;;;-148.33;100.00;56587.81;5030280;28;20473;-58
2022/04/20 02:52:41;;;;;;;3.42;3.10;;;;;;;-148.33;100.00;56587.81;5029728;28;20021;-58
2022/04/20 02:55:07;;;;;;;3.60;3.30;;;;;;;-148.33;100.00;56587.81;5030534;28;20044;-57
2022/04/20 02:57:32;;;;;;;4.18;3.55;;;;;;;-148.33;100.00;56587.81;5029010;28;20047;-58
2022/04/20 02:59:58;;;;;;;4.82;3.60;;;;;;;-148.33;100.00;56587.81;5030327;28;20031;-58
2022/04/20 03:02:23;;;;;;;4.07;3.67;;;;;;;-148.33;100.00;56587.81;5030464;28;20056;-57
2022/04/20 03:04:48;;;;;;;8.15;3.53;;;;;;;-148.33;100.00;56587.81;5029992;28;20028;-58
2022/04/20 03:07:14;;;;;;;4.13;3.75;;;;;;;-148.33;100.00;56587.81;5029840;28;20480;-57
2022/04/20 03:09:39;;;;;;;6.03;3.38;;;;;;;-148.33;100.00;56587.81;5029858;28;20079;-57
2022/04/20 03:12:05;;;;;;;3.42;3.13;;;;;;;-148.33;100.00;56587.81;5030068;28;20040;-58
2022/04/20 03:14:30;;;;;;;5.03;3.03;;;;;;;-148.33;100.00;56587.81;5028815;28;20024;-58
2022/04/20 03:16:55;;;;;;;3.95;3.15;;;;;;;-148.33;100.00;56587.81;5029588;28;20272;-56
2022/04/20 03:19:21;;;;;;;4.20;3.60;;;;;;;-148.33;100.00;56587.81;5029822;28;20037;-59
2022/04/20 03:21:47;;;;;;;3.85;3.35;;;;;;;-148.33;100.00;56587.81;5029338;28;20025;-58
2022/04/20 03:24:12;;;;;;;3.67;3.17;;;;;;;-148.33;100.00;56587.81;5029527;28;20032;-57
2022/04/20 03:26:39;;;;;;;5.47;3.67;;;;;;;-148.33;100.00;56587.81;5029618;28;20087;-58
2022/04/20 03:29:04;;;;;;;3.53;3.03;;;;;;;-148.33;100.00;56587.81;5029945;28;20100;-58
2022/04/20 03:31:29;;;;;;;3.70;3.30;;;;;;;-148.33;100.00;56587.81;5029644;28;20040;-59
2022/04/20 03:33:55;;;;;;;4.47;3.50;;;;;;;-148.33;100.00;56587.81;5029281;28;20057;-58
2022/04/20 03:36:21;;;;;;;3.63;3.25;;;;;;;-148.33;100.00;56587.81;5029048;28;20359;-59
2022/04/20 03:38:46;;;;;;;3.70;3.28;;;;;;;-148.33;100.00;56587.81;5029166;28;20032;-58
2022/04/20 03:41:11;;;;;;;4.68;3.70;;;;;;;-148.33;100.00;56587.81;5029211;28;20053;-57
2022/04/20 03:43:36;;;;;;;3.70;3.40;;;;;;;-148.33;100.00;56587.81;5029343;28;20044;-59
2022/04/20 03:46:02;;;;;;;4.68;3.33;;;;;;;-148.33;100.00;56587.81;5029272;28;20389;-59
2022/04/20 03:48:27;;;;;;;3.40;3.10;;;;;;;-148.33;100.00;56587.81;5028756;28;20032;-59
2022/04/20 03:50:52;;;;;;;4.82;3.83;;;;;;;-148.33;100.00;56587.81;5029042;28;20021;-58
2022/04/20 03:53:18;;;;;;;3.80;3.38;;;;;;;-148.33;100.00;56587.81;5029123;28;20033;-59
2022/04/20 03:55:44;;;;;;;4.30;3.30;;;;;;;-148.33;100.00;56587.81;5029686;28;20075;-57
2022/04/20 03:58:09;;;;;;;5.85;3.38;;;;;;;-148.33;100.00;56587.81;5028486;28;20438;-59
2022/04/20 04:00:35;;;;;;;4.60;3.58;;;;;;;-148.33;100.00;56587.81;5027783;28;20035;-57
2022/04/20 04:03:00;;;;;;;5.90;3.40;;;;;;;-148.33;100.00;56587.81;5029081;28;20112;-59
2022/04/20 04:05:25;;;;;;;4.40;3.63;;;;;;;-148.33;100.00;56587.81;5029228;28;20095;-59
2022/04/20 04:07:51;;;;;;;4.03;3.60;;;;;;;-148.33;100.00;56587.81;5028798;28;20366;-58
2022/04/20 04:10:16;;;;;;;5.15;3.17;;;;;;;-148.33;100.00;56587.81;5028893;28;20026;-58
2022/04/20 04:12:41;;;;;;;3.55;3.22;;;;;;;-148.33;100.00;56587.81;5028779;28;20396;-58
2022/04/20 04:15:07;;;;;;;4.03;3.63;;;;;;;-148.33;100.00;56587.81;5028637;28;20033;-56
2022/04/20 04:17:33;;;;;;;5.03;3.40;;;;;;;-148.33;100.00;56587.81;5029230;28;20027;-58
2022/04/20 04:19:59;;;;;;;5.32;3.95;;;;;;;-148.33;100.00;56587.81;5028242;28;20075;-57
2022/04/20 04:22:24;;;;;;;4.47;3.60;;;;;;;-148.33;100.00;56587.81;5028374;28;20128;-58
2022/04/20 04:24:49;;;;;;;4.07;3.20;;;;;;;-148.33;100.00;56587.81;5027467;28;20118;-59
2022/04/20 04:27:15;;;;;;;6.15;4.10;;;;;;;-148.33;100.00;56587.81;5029841;28;20029;-57
2022/04/20 04:29:40;;;;;;;4.95;3.60;;;;;;;-148.33;100.00;56587.81;5026838;28;20104;-59
2022/04/20 04:32:06;;;;;;;3.92;3.45;;;;;;;-148.33;100.00;56587.81;5026840;28;20370;-58
2022/04/20 04:34:32;;;;;;;5.03;3.60;;;;;;;-148.33;100.00;56587.81;5026629;28;20079;-58
2022/04/20 04:36:58;;;;;;;4.18;3.80;;;;;;;-148.33;100.00;56587.81;5026422;28;20026;-57
2022/04/20 04:39:28;;;;;;;4.63;4.00;;;;;;;-148.33;100.00;56587.81;5027286;28;20036;-57
2022/04/20 04:41:56;;;;;;;5.90;3.67;;;;;;;-148.33;100.00;56587.81;5028460;28;20048;-58
2022/04/20 04:44:21;;;;;;;4.47;4.07;;;;;;;-148.33;100.00;56587.81;5028300;28;20036;-58
2022/04/20 04:49:31;;;;;;;4.78;3.72;;;;;;;-148.33;100.00;56587.81;5028482;28;20090;-58
2022/04/20 04:51:57;;;;;;;4.10;3.70;;;;;;;-148.33;100.00;56587.81;5028293;28;20124;-57
2022/04/20 04:54:23;;;;;;;3.80;3.50;;;;;;;-148.33;100.00;56587.81;5028637;28;20283;-56
2022/04/20 04:56:49;;;;;;;3.85;3.30;;;;;;;-148.33;100.00;56587.81;5028181;28;20025;-57
2022/04/20 04:59:14;;;;;;;4.45;3.90;;;;;;;-148.33;100.00;56587.81;5027824;28;20030;-59
2022/04/20 05:01:39;;;;;;;4.80;3.85;;;;;;;-148.33;100.00;56587.81;5028033;28;20021;-58
2022/04/20 05:04:05;;;;;;;5.10;4.20;;;;;;;-148.33;100.00;56587.81;5029037;28;20609;-58
2022/04/20 05:06:31;;;;;;;4.63;4.10;;;;;;;-148.33;100.00;56587.81;5028329;28;20033;-58
2022/04/20 05:08:56;;;;;;;7.22;4.38;;;;;;;-148.33;100.00;56587.81;5027926;28;20040;-58
2022/04/20 05:11:21;;;;;;;7.43;4.05;;;;;;;-148.33;100.00;56587.81;5028004;28;20025;-59
2022/04/20 05:13:47;;;;;;;4.65;4.22;;;;;;;-148.33;100.00;56587.81;5026505;28;20037;-55
2022/04/20 05:16:12;;;;;;;5.68;4.68;;;;;;;-148.33;100.00;56587.81;5027942;28;20029;-57
2022/04/20 05:18:37;;;;;;;7.60;4.70;;;;;;;-148.33;100.00;56587.81;5028199;28;20308;-58
2022/04/20 05:21:03;;;;;;;6.63;4.03;;;;;;;-148.33;100.00;56587.81;5027330;28;20030;-58
2022/04/20 05:23:28;;;;;;;4.88;4.25;;;;;;;-148.33;100.00;56587.81;5027899;28;20045;-57
2022/04/20 05:25:53;;;;;;;5.00;4.50;;;;;;;-148.33;100.00;56587.81;5028091;28;20026;-56
2022/04/20 05:28:19;;;;;;;5.50;4.50;;;;;;;-148.33;100.00;56587.81;5027829;28;20037;-57
2022/04/20 05:30:44;;;;;;;4.22;3.83;;;;;;;-148.33;100.00;56587.81;5028191;28;20140;-57
2022/04/20 05:33:09;;;;;;;7.03;4.00;;;;;;;-148.33;100.00;56587.81;5027644;28;20050;-57
2022/04/20 05:35:35;;;;;;;6.20;4.05;;;;;;;-148.33;100.00;56587.81;5027709;28;20032;-58
2022/04/20 05:43:27;;;;;;;4.22;3.92;;;;;;;-148.33;100.00;56587.81;5031551;28;20084;-59
2022/04/20 05:45:53;;;;;;;4.78;4.18;;;;;;;-148.33;100.00;56587.81;5030870;28;20061;-59
2022/04/20 05:48:18;;;;;;;6.47;4.00;;;;;;;-148.33;100.00;56587.81;5030594;28;20037;-59
2022/04/20 05:50:44;;;;;;;7.75;4.65;;;;;;;-148.33;100.00;56587.81;5031469;28;20049;-59
2022/04/20 05:53:09;;;;;;;5.38;4.35;;;;;;;-148.33;100.00;56587.81;5031813;28;20445;-60
2022/04/20 05:55:35;;;;;;;5.72;4.28;;;;;;;-148.33;100.00;56587.81;5031592;28;20116;-59
2022/04/20 05:58:00;;;;;;;3.88;3.58;;;;;;;-148.33;100.00;56587.81;5029832;28;20471;-58
2022/04/20 06:00:26;;;;;;;5.70;4.20;;;;;;;-148.33;100.00;56587.81;5030483;28;20018;-59
2022/04/20 06:02:52;;;;;;;8.70;4.10;;;;;;;-148.33;100.00;56587.81;5029718;28;20029;-59
2022/04/20 06:05:18;;;;;;;6.85;3.63;;;;;;;-148.33;100.00;56587.81;5029832;28;20037;-59
2022/04/20 06:07:43;;;;;;;6.03;5.00;;;;;;;-148.33;100.00;56587.81;5029628;28;20040;-57
2022/04/20 06:10:10;;;;;;;5.70;5.20;;;;;;;-148.33;100.00;56587.81;5030145;28;20102;-58
2022/04/20 06:12:35;;;;;;;9.43;5.32;;;;;;;-148.33;100.00;56587.81;5029378;28;20033;-60
2022/04/20 06:15:01;;;;;;;26.02;8.13;;;;;;;-148.33;100.00;56587.81;5031013;28;20268;-58
2022/04/20 06:17:26;;;;;;;9.82;4.70;;;;;;;-148.33;100.00;56587.81;5030650;28;20389;-57
2022/04/20 06:19:51;;;;;;;6.00;4.40;;;;;;;-148.33;100.00;56587.81;5034755;28;20347;-59
2022/04/20 06:22:16;;;;;;;5.25;4.57;;;;;;;-148.33;100.00;56587.81;5047584;28;20125;-61
2022/04/20 06:24:42;;;;;;;10.30;4.90;;;;;;;-148.33;100.00;56587.81;5049988;28;20029;-58
2022/04/20 06:27:07;;;;;;;4.72;4.10;;;;;;;-148.33;100.00;56587.81;5050709;28;20063;-59
2022/04/20 06:29:36;;;;;;;7.25;5.05;;;;;;;-148.33;100.00;56587.81;5051060;28;20032;-58
2022/04/20 06:32:02;;;;;;;5.53;4.28;;;;;;;-148.33;100.00;56587.81;5049941;28;20054;-59
2022/04/20 06:34:27;;;;;;;5.72;3.92;;;;;;;-148.33;100.00;56587.81;5051065;28;20028;-58
2022/04/20 06:36:53;;;;;;;5.50;4.25;;;;;;;-148.33;100.00;56587.81;5050467;28;20028;-61
2022/04/20 06:39:18;;;;;;;6.85;4.15;;;;;;;-148.33;100.00;56587.81;5050662;28;20117;-57
2022/04/20 06:41:43;;;;;;;4.85;4.18;;;;;;;-148.33;100.00;56587.81;5050392;28;20029;-58
2022/04/20 06:44:08;;;;;;;5.15;4.05;;;;;;;-148.33;100.00;56587.81;5050552;28;20076;-59
2022/04/20 06:46:34;;;;;;;4.15;3.47;;;;;;;-148.33;100.00;56587.81;5049969;28;20135;-58
2022/04/20 06:48:59;;;;;;;9.32;4.53;;;;;;;-148.33;100.00;56587.81;5049138;28;20365;-57
2022/04/20 06:51:25;;;;;;;6.72;4.50;;;;;;;-148.33;100.00;56587.81;5050184;28;20017;-59
2022/04/20 06:59:20;;;;;;;5.68;4.28;;;;;;;-148.33;100.00;56587.81;5050230;28;20048;-59
2022/04/20 07:01:45;;;;;;;5.20;4.60;;;;;;;-148.33;100.00;56587.81;5050197;28;20519;-60
2022/04/20 07:04:11;;;;;;;6.85;4.70;;;;;;;-148.33;100.00;56587.81;5050859;28;20028;-57
2022/04/20 07:06:36;;;;;;;4.57;4.18;;;;;;;-148.33;100.00;56587.81;5050345;28;20112;-58
2022/04/20 07:09:02;;;;;;;4.40;4.00;;;;;;;-148.33;100.00;56587.81;5049687;28;20118;-57
2022/04/20 07:11:28;;;;;;;5.35;4.30;;;;;;;-148.33;100.00;56587.81;5050144;28;20147;-59
2022/04/20 07:13:54;;;;;;;4.45;3.70;;;;;;;-148.33;100.00;56587.81;5049878;28;20028;-59
2022/04/20 07:16:20;;;;;;;4.18;3.78;;;;;;;-148.33;100.00;56587.81;5049822;28;20029;-59
2022/04/20 07:18:45;;;;;;;5.25;3.90;;;;;;;-148.33;100.00;56587.81;5048712;28;20384;-59
2022/04/20 07:21:10;;;;;;;3.88;3.33;;;;;;;-148.33;100.00;56587.81;5049268;28;20021;-59
2022/04/20 07:23:36;;;;;;;4.85;4.00;;;;;;;-148.33;100.00;56587.81;5048627;28;20388;-59
2022/04/20 07:26:02;;;;;;;6.70;4.13;;;;;;;-148.33;100.00;56587.81;5049404;28;20478;-58
2022/04/20 07:28:27;;;;;;;4.43;3.90;;;;;;;-148.33;100.00;56587.81;5049840;28;20040;-60
2022/04/20 07:30:52;;;;;;;5.30;4.15;;;;;;;-148.33;100.00;56587.81;5049117;28;20472;-57
2022/04/20 07:33:17;;;;;;;5.28;3.70;;;;;;;-148.33;100.00;56587.81;5049346;28;20351;-58
2022/04/20 07:35:47;;;;;;;5.05;3.78;;;;;;;-148.33;100.00;56587.81;5049181;28;20354;-59
2022/04/20 07:38:12;;;;;;;6.10;3.60;;;;;;;-148.33;100.00;56587.81;5049249;28;20367;-58
2022/04/20 07:40:38;;;;;;;5.70;3.67;;;;;;;-148.33;100.00;56587.81;5049264;28;20074;-59
2022/04/20 07:43:04;;;;;;;5.28;3.38;;;;;;;-148.33;100.00;56587.81;5049130;28;20047;-57
2022/04/20 07:45:29;;;;;;;3.97;3.55;;;;;;;-148.33;100.00;56587.81;5049558;28;20033;-59
2022/04/20 07:47:56;;;;;;;5.10;3.53;;;;;;;-148.33;100.00;56587.81;5048656;28;20086;-59
2022/04/20 07:50:25;;;;;;;6.18;3.60;;;;;;;-148.33;100.00;56587.81;5049194;28;20037;-57
2022/04/20 07:52:56;;;;;;;4.20;3.38;;;;;;;-148.33;100.00;56587.81;5049401;28;20637;-59
2022/04/20 07:55:29;;;;;;;5.07;3.47;;;;;;;-148.33;100.00;56587.81;5048815;28;20103;-59
2022/04/20 07:58:00;;;;;;;7.82;3.70;;;;;;;-148.33;100.00;56587.81;5048892;28;20029;-59
2022/04/20 08:00:27;;;;;;;4.15;3.30;;;;;;;-148.33;100.00;56587.81;5048904;28;20373;-60
2022/04/20 08:03:14;;;;;;;4.25;3.45;;;;;;;-148.33;100.00;56587.81;5048797;28;20036;-59
2022/04/20 08:05:40;;;;;;;4.90;3.20;;;;;;;-148.33;100.00;56587.81;5048891;28;20062;-59
2022/04/20 08:08:07;;;;;;;4.85;3.22;;;;;;;-148.33;100.00;56587.81;5048488;28;20025;-59
2022/04/20 08:10:32;;;;;;;4.15;3.38;;;;;;;-148.33;100.00;56587.81;5049067;28;20024;-59
2022/04/20 08:12:58;;;;;;;4.95;3.40;;;;;;;-148.33;100.00;56587.81;5048400;28;20029;-58
2022/04/20 08:15:23;;;;;;;8.32;3.25;;;;;;;-148.33;100.00;56587.81;5048547;28;20059;-60
2022/04/20 08:17:48;;;;;;;5.13;3.42;;;;;;;-148.33;100.00;56587.81;5048471;28;20284;-58
2022/04/20 08:20:14;;;;;;;3.90;3.50;;;;;;;-148.33;100.00;56587.81;5047192;28;20032;-59
2022/04/20 08:22:42;;;;;;;3.95;3.40;;;;;;;-148.33;100.00;56587.81;5048456;28;20032;-59
2022/04/20 08:25:09;;;;;;;4.30;3.45;;;;;;;-148.33;100.00;56587.81;5048414;28;20361;-58
2022/04/20 08:27:35;;;;;;;4.13;3.72;;;;;;;-148.33;100.00;56587.81;5047799;28;20025;-58
2022/04/20 08:30:00;;;;;;;5.18;3.83;;;;;;;-148.33;100.00;56587.81;5048758;28;20035;-59
2022/04/20 08:32:26;;;;;;;4.07;3.67;;;;;;;-148.33;100.00;56587.81;5048205;28;20393;-58
2022/04/20 08:34:51;;;;;;;3.90;3.50;;;;;;;-148.33;100.00;56587.81;5048538;28;20036;-59
2022/04/20 08:37:17;;;;;;;6.13;3.63;;;;;;;-148.33;100.00;56587.81;5048305;28;20045;-58
2022/04/20 08:39:43;;;;;;;23.52;5.95;;;;;;;-148.33;100.00;56587.81;5048627;28;20025;-58
2022/04/20 08:42:11;;;;;;;11.40;5.13;;;;;;;-148.33;100.00;56587.81;5047733;28;20531;-60
2022/04/20 08:44:42;;;;;;;24.73;6.90;;;;;;;-148.33;100.00;56587.81;5048638;28;20373;-59
2022/04/20 08:47:12;;;;;;;4.63;3.83;;;;;;;-148.33;100.00;56587.81;5048312;28;20131;-60
2022/04/20 08:49:40;;;;;;;4.93;3.40;;;;;;;-148.33;100.00;56587.81;5048167;28;20025;-60
2022/04/20 08:54:50;;;;;;;5.55;4.13;;;;;;;-148.33;100.00;56587.81;5048013;28;20140;-60
2022/04/20 08:57:16;;;;;;;5.78;4.30;;;;;;;-148.33;100.00;56587.81;5047754;28;20451;-59
2022/04/20 08:59:42;;;;;;;4.75;3.88;;;;;;;-148.33;100.00;56587.81;5047977;28;20036;-59
2022/04/20 09:02:10;;;;;;;6.25;4.38;;;;;;;-148.33;100.00;56587.81;5048089;28;20090;-60
2022/04/20 09:04:35;;;;;;;8.80;4.40;;;;;;;-148.33;100.00;56587.81;5047716;28;20021;-60
2022/04/20 09:07:03;;;;;;;8.48;4.63;;;;;;;-148.33;100.00;56587.81;5047589;28;20388;-59
2022/04/20 09:09:30;;;;;;;14.45;4.97;;;;;;;-148.33;100.00;56587.81;5047886;28;20031;-60
2022/04/20 09:11:57;;;;;;;7.53;4.28;;;;;;;-148.33;100.00;56587.81;5048865;28;20029;-59
2022/04/20 09:14:24;;;;;;;5.93;4.40;;;;;;;-148.33;100.00;56587.81;5052269;28;20388;-58
2022/04/20 09:16:53;;;;;;;4.70;4.00;;;;;;;-148.33;100.00;56587.81;5052031;28;20035;-59
2022/04/20 09:19:24;;;;;;;6.00;4.07;;;;;;;-148.33;100.00;56587.81;5051417;28;20035;-60
2022/04/20 09:21:49;;;;;;;7.68;4.15;;;;;;;-148.33;100.00;56587.81;5051935;28;20067;-60
2022/04/20 09:24:14;;;;;;;5.82;3.88;;;;;;;-148.33;100.00;56587.81;5052093;28;20025;-60
2022/04/20 09:26:56;;;;;;;4.07;3.67;;;;;;;-148.33;100.00;56587.81;5052351;28;20025;-58
2022/04/20 09:29:22;;;;;;;5.03;3.38;;;;;;;-148.33;100.00;56587.81;5052119;28;20045;-60
2022/04/20 09:31:52;;;;;;;6.95;3.70;;;;;;;-148.33;100.00;56587.81;5050062;28;20056;-59
2022/04/20 09:34:31;;;;;;;7.43;3.87;;;;;;;-148.33;100.00;56587.81;5051823;28;20043;-59
2022/04/20 09:36:57;;;;;;;8.40;4.43;;;;;;;-148.33;100.00;56587.81;5051295;28;20311;-60
2022/04/20 09:39:25;;;;;;;8.48;3.33;;;;;;;-148.33;100.00;56587.81;5051636;28;20029;-60
2022/04/20 09:42:02;;;;;;;9.65;3.75;;;;;;;-148.33;100.00;56587.81;5050908;28;20056;-60
2022/04/20 09:44:30;;;;;;;4.15;3.03;;;;;;;-148.33;100.00;56587.81;5051849;28;20029;-58
2022/04/20 09:49:58;;;;;;;4.03;3.05;;;;;;;-148.33;100.00;56587.81;5051533;28;20393;-60
2022/04/20 09:52:43;;;;;;;9.52;3.63;;;;;;;-148.33;100.00;56587.81;5051312;28;20044;-60
2022/04/20 09:55:13;;;;;;;3.60;3.30;;;;;;;-148.33;100.00;56587.81;5051557;28;20039;-60
2022/04/20 09:57:39;;;;;;;4.25;2.67;;;;;;;-148.33;100.00;56587.81;5050348;28;20151;-60
2022/04/20 10:00:10;;;;;;;3.20;2.22;;;;;;;-148.33;100.00;56587.81;5051201;28;20029;-61
2022/04/20 10:02:52;;;;;;;4.00;2.10;;;;;;;-148.33;100.00;56587.81;5051401;28;20021;-60
2022/04/20 10:05:19;;;;;;;3.45;1.95;;;;;;;-148.33;100.00;56587.81;5050888;28;20028;-59
2022/04/20 10:07:44;;;;;;;3.33;1.85;;;;;;;-148.33;100.00;56587.81;5050908;28;20108;-59
2022/04/20 10:10:10;;;;;;;2.30;2.10;;;;;;;-148.33;100.00;56587.81;5050446;28;20111;-60
2022/04/20 10:12:38;;;;;;;4.05;2.60;;;;;;;-148.33;100.00;56587.81;5050563;28;20025;-60
2022/04/20 10:17:53;;;;;;;4.22;2.47;;;;;;;-148.33;100.00;56587.81;5050624;28;20158;-60
2022/04/20 10:20:19;;;;;;;4.93;2.10;;;;;;;-148.33;100.00;56587.81;5050686;28;20499;-60
2022/04/20 10:22:45;;;;;;;3.47;2.13;;;;;;;-148.33;100.00;56587.81;5050345;28;20036;-61
2022/04/20 10:25:13;;;;;;;6.82;1.80;;;;;;;-148.33;100.00;56587.81;5051232;28;20029;-60
2022/04/20 10:27:58;;;;;;;4.15;2.03;;;;;;;-148.33;100.00;56587.81;5051014;28;20033;-60
2022/04/20 10:30:30;;;;;;;2.58;2.05;;;;;;;-148.33;100.00;56587.81;5050556;28;20358;-60
2022/04/20 10:33:07;;;;;;;3.58;2.28;;;;;;;-148.33;100.00;56587.81;5050028;28;20044;-60
2022/04/20 10:35:57;;;;;;;2.45;1.85;;;;;;;-148.33;100.00;56587.81;5049416;28;20025;-59
2022/04/20 10:38:23;;;;;;;3.60;2.57;;;;;;;-148.33;100.00;56587.81;5049365;28;20020;-59
2022/04/20 10:41:06;;;;;;;4.18;2.10;;;;;;;-148.33;100.00;56587.81;5048843;28;20025;-60
2022/04/20 10:43:34;;;;;;;2.75;2.10;;;;;;;-148.33;100.00;56587.81;5048441;28;20056;-61
2022/04/20 10:46:14;;;;;;;3.95;2.10;;;;;;;-148.33;100.00;56587.81;5048605;28;20060;-59
2022/04/20 10:48:49;;;;;;;2.53;2.00;;;;;;;-148.33;100.00;56587.81;5048999;28;20381;-60
2022/04/20 10:51:16;;;;;;;1.77;1.65;;;;;;;-148.33;100.00;56587.81;5049068;28;20021;-59
2022/04/20 10:53:50;;;;;;;2.55;2.15;;;;;;;-148.33;100.00;56587.81;5050017;28;20079;-60
2022/04/20 10:56:18;;;;;;;2.70;1.80;;;;;;;-148.33;100.00;56587.81;5050390;28;20021;-61
2022/04/20 10:59:01;;;;;;;2.75;2.20;;;;;;;-148.33;100.00;56587.81;5050509;28;20100;-61
2022/04/20 11:01:26;;;;;;;3.65;2.10;;;;;;;-148.33;100.00;56587.81;5050385;28;20082;-61
2022/04/20 11:03:57;;;;;;;3.33;2.33;;;;;;;-148.33;100.00;56587.81;5047195;28;20021;-61
2022/04/20 11:06:29;;;;;;;2.88;2.30;;;;;;;-148.33;100.00;56587.81;5047348;28;20056;-60
2022/04/20 11:09:01;;;;;;;3.17;1.95;;;;;;;-148.33;100.00;56587.81;5041449;28;20040;-61
2022/04/20 11:20:05;;;;;;;5.32;2.47;;;;;;;-148.33;100.00;56587.81;5049688;28;20083;-60
2022/04/20 11:22:31;;;;;;;2.30;1.88;;;;;;;-148.33;100.00;56587.81;5049517;28;20036;-60
2022/04/20 11:25:06;;;;;;;6.28;2.53;;;;;;;-148.33;100.00;56587.81;5049664;28;20017;-62
2022/04/20 11:27:37;;;;;;;4.03;2.60;;;;;;;-148.33;100.00;56587.81;5049819;28;20025;-59
2022/04/20 11:30:07;;;;;;;2.63;1.80;;;;;;;-148.33;100.00;56587.81;5049942;28;20020;-60
2022/04/20 11:32:32;;;;;;;2.67;1.83;;;;;;;-148.33;100.00;56587.81;5048826;28;20044;-61
2022/04/20 11:35:10;;;;;;;3.17;2.30;;;;;;;-148.33;100.00;56587.81;5048655;28;20024;-59
2022/04/20 11:37:37;;;;;;;3.50;1.95;;;;;;;-148.33;100.00;56587.81;5049278;28;20032;-59
2022/04/20 11:40:11;;;;;;;3.92;2.33;;;;;;;-148.33;100.00;56587.81;5048828;28;20027;-60
2022/04/20 11:42:37;;;;;;;3.13;2.17;;;;;;;-148.33;100.00;56587.81;5049698;28;20025;-60
2022/04/20 11:45:03;;;;;;;2.95;2.03;;;;;;;-148.33;100.00;56587.81;5049449;28;20477;-60